Time;durP1;ratioP1;P1;durP2;ratioP2;P2;SDS_P1;SDS_P2;PMS_P1;PMS_P2;Temp;Humidity;BMP_temperature;BMP_pressure;BME280_temperature;BME280_humidity;BME280_pressure;Samples;Min_cycle;Max_cycle;Signal;HPM_P1;HPM_P2
2023/11/06 00:35:16;;;;;;;5.33;4.10;;;10.10;99.90;;;;;;6113411;23;20226;-87
2023/11/06 01:05:34;;;;;;;4.40;4.00;;;10.30;99.90;;;;;;6082072;23;20207;-85
2023/11/06 01:46:11;;;;;;;3.80;3.20;;;10.60;99.90;;;;;;6254171;22;20199;-88
2023/11/06 02:00:50;;;;;;;4.40;3.70;;;10.40;99.90;;;;;;6224709;22;20180;31
2023/11/06 02:31:46;;;;;;;4.13;3.60;;;10.20;99.90;;;;;;6011841;23;20169;-85
2023/11/06 02:36:07;;;;;;;4.13;3.73;;;10.30;99.90;;;;;;5924413;24;20275;-88
2023/11/06 02:56:47;;;;;;;4.90;3.33;;;10.50;99.90;;;;;;6011045;23;20206;-85
2023/11/06 03:26:48;;;;;;;3.13;2.83;;;10.70;99.90;;;;;;5937645;24;20214;-85
2023/11/06 03:47:34;;;;;;;2.50;2.30;;;10.80;99.90;;;;;;5889431;24;20209;-87
2023/11/06 04:08:04;;;;;;;2.70;2.50;;;11.00;99.90;;;;;;5866633;24;20377;-87
2023/11/06 04:42:52;;;;;;;3.27;1.70;;;11.10;99.90;;;;;;6187398;22;20172;31
2023/11/06 05:08:34;;;;;;;1.93;1.77;;;11.10;99.90;;;;;;6001963;23;20181;-88
2023/11/06 05:28:17;;;;;;;2.00;1.90;;;10.80;99.90;;;;;;5631543;25;20245;-87
2023/11/06 05:33:32;;;;;;;1.87;1.77;;;10.70;99.90;;;;;;6231923;22;20332;-84
2023/11/06 05:54:45;;;;;;;2.80;1.80;;;10.90;99.90;;;;;;5743402;24;20647;-87
2023/11/06 05:58:21;;;;;;;2.03;1.77;;;10.90;99.90;;;;;;5737408;24;20185;-87
2023/11/06 06:22:34;;;;;;;3.40;1.97;;;11.20;99.90;;;;;;5538823;25;20560;-86
2023/11/06 06:43:14;;;;;;;2.30;2.17;;;11.40;99.90;;;;;;5613639;25;20179;-87
2023/11/06 07:03:44;;;;;;;2.80;1.60;;;11.70;99.90;;;;;;5686646;24;20379;-85
2023/11/06 07:38:53;;;;;;;2.23;1.60;;;11.90;97.50;;;;;;6061097;23;20248;-85
2023/11/06 07:48:49;;;;;;;4.53;1.97;;;12.00;95.80;;;;;;6095962;23;20527;-86
2023/11/06 08:09:22;;;;;;;1.97;1.60;;;11.90;96.90;;;;;;5787671;24;20183;-86
2023/11/06 08:59:50;;;;;;;2.77;1.50;;;11.30;99.90;;;;;;5850528;24;20539;-86
2023/11/06 09:20:15;;;;;;;2.10;1.40;;;11.50;99.90;;;;;;6188466;22;20602;-87
2023/11/06 09:45:47;;;;;;;2.87;1.50;;;11.10;99.90;;;;;;6012114;23;20176;-88
2023/11/06 10:15:47;;;;;;;3.47;2.07;;;11.50;99.90;;;;;;5914435;23;20731;-87
2023/11/06 10:36:23;;;;;;;4.93;2.20;;;11.30;99.90;;;;;;6014342;23;20242;-85
2023/11/06 10:57:04;;;;;;;3.23;1.80;;;12.10;99.90;;;;;;5817908;24;20185;-86
2023/11/06 11:27:10;;;;;;;2.93;1.67;;;13.00;92.30;;;;;;5711945;24;20798;-85
2023/11/06 11:52:48;;;;;;;2.70;1.60;;;12.90;86.90;;;;;;5885433;24;20279;-87
2023/11/06 12:33:24;;;;;;;4.23;1.50;;;13.10;85.80;;;;;;6128576;23;20386;-83
2023/11/06 12:58:31;;;;;;;2.83;1.60;;;13.20;87.70;;;;;;5952200;23;20263;-83
2023/11/06 13:18:47;;;;;;;3.40;1.60;;;13.20;87.90;;;;;;5778596;24;20176;-84
2023/11/06 14:09:24;;;;;;;4.80;1.63;;;13.00;88.20;;;;;;5736871;23;20283;-81
2023/11/06 15:05:15;;;;;;;2.17;1.70;;;12.50;92.20;;;;;;5697780;24;20205;-83
2023/11/06 15:30:41;;;;;;;4.47;2.40;;;11.90;97.40;;;;;;5511868;24;20185;-82
2023/11/06 16:36:10;;;;;;;2.57;2.13;;;11.20;99.90;;;;;;5741263;24;20542;-83
2023/11/06 18:48:23;;;;;;;9.10;3.50;;;10.60;99.90;;;;;;5913598;24;20218;-85
2023/11/06 19:34:11;;;;;;;5.20;3.80;;;9.90;99.90;;;;;;6252227;22;20151;-88
2023/11/06 19:48:57;;;;;;;4.70;3.50;;;9.90;99.90;;;;;;6217899;22;20180;-85
2023/11/06 20:19:02;;;;;;;4.70;3.60;;;10.30;99.90;;;;;;6210195;23;20712;-84
2023/11/06 20:39:42;;;;;;;6.73;4.37;;;10.50;99.90;;;;;;6202699;23;20492;-84
2023/11/06 21:04:45;;;;;;;6.93;4.60;;;10.60;99.90;;;;;;6025057;23;20181;-88
2023/11/06 21:25:29;;;;;;;7.43;4.60;;;10.80;99.90;;;;;;6035187;23;20210;-86
2023/11/06 21:50:57;;;;;;;6.57;4.57;;;10.80;99.90;;;;;;5962091;23;20199;-86
2023/11/06 22:11:01;;;;;;;7.10;4.23;;;10.80;99.90;;;;;;5772135;24;20568;-85
2023/11/06 22:26:13;;;;;;;7.83;3.67;;;10.80;99.90;;;;;;6248432;22;20195;-86
2023/11/06 22:51:31;;;;;;;4.63;3.47;;;11.10;99.90;;;;;;6107000;23;20578;-87
2023/11/06 23:32:14;;;;;;;4.53;3.33;;;10.20;99.90;;;;;;6231297;22;20164;-85
2023/11/06 23:36:39;;;;;;;5.90;3.20;;;10.10;99.90;;;;;;6095756;23;20768;-85
